sensor_id;sensor_type;location;lat;lon;timestamp;P1;durP1;ratioP1;P2;durP2;ratioP2
7523;SDS011;3803;51.666;7.630;2023-03-01T00:00:18;12.75;;;8.43;;
7523;SDS011;3803;51.666;7.630;2023-03-01T00:00:39;11.20;;;8.52;;
7523;SDS011;3803;51.666;7.630;2023-03-01T00:01:04;10.73;;;8.48;;
7523;SDS011;3803;51.666;7.630;2023-03-01T00:01:27;11.45;;;8.25;;
7523;SDS011;3803;51.666;7.630;2023-03-01T00:01:49;11.15;;;7.93;;
7523;SDS011;3803;51.666;7.630;2023-03-01T00:02:10;9.60;;;8.10;;
7523;SDS011;3803;51.666;7.630;2023-03-01T00:02:30;9.83;;;7.80;;
7523;SDS011;3803;51.666;7.630;2023-03-01T00:02:51;9.70;;;7.80;;
7523;SDS011;3803;51.666;7.630;2023-03-01T00:03:11;11.00;;;7.88;;
7523;SDS011;3803;51.666;7.630;2023-03-01T00:03:33;10.32;;;8.00;;
7523;SDS011;3803;51.666;7.630;2023-03-01T00:03:54;11.88;;;8.10;;
7523;SDS011;3803;51.666;7.630;2023-03-01T00:04:16;11.30;;;7.90;;
7523;SDS011;3803;51.666;7.630;2023-03-01T00:04:37;10.90;;;7.83;;
7523;SDS011;3803;51.666;7.630;2023-03-01T00:04:57;9.40;;;7.73;;
7523;SDS011;3803;51.666;7.630;2023-03-01T00:05:18;10.60;;;8.00;;
7523;SDS011;3803;51.666;7.630;2023-03-01T00:05:44;10.83;;;7.87;;
7523;SDS011;3803;51.666;7.630;2023-03-01T00:06:06;11.15;;;7.70;;
7523;SDS011;3803;51.666;7.630;2023-03-01T00:06:27;10.57;;;7.78;;
7523;SDS011;3803;51.666;7.630;2023-03-01T00:06:47;10.30;;;7.80;;
7523;SDS011;3803;51.666;7.630;2023-03-01T00:07:08;9.80;;;7.55;;
7523;SDS011;3803;51.666;7.630;2023-03-01T00:07:28;9.43;;;7.33;;
7523;SDS011;3803;51.666;7.630;2023-03-01T00:07:55;9.57;;;7.45;;
7523;SDS011;3803;51.666;7.630;2023-03-01T00:08:16;10.07;;;7.75;;
7523;SDS011;3803;51.666;7.630;2023-03-01T00:08:36;10.60;;;7.83;;
7523;SDS011;3803;51.666;7.630;2023-03-01T00:08:57;11.17;;;7.97;;
7523;SDS011;3803;51.666;7.630;2023-03-01T00:09:18;11.17;;;8.10;;
7523;SDS011;3803;51.666;7.630;2023-03-01T00:09:38;11.57;;;8.52;;
7523;SDS011;3803;51.666;7.630;2023-03-01T00:10:00;10.73;;;8.30;;
7523;SDS011;3803;51.666;7.630;2023-03-01T00:10:20;10.00;;;8.00;;
7523;SDS011;3803;51.666;7.630;2023-03-01T00:10:41;8.45;;;7.40;;
7523;SDS011;3803;51.666;7.630;2023-03-01T00:11:39;11.98;;;7.80;;
7523;SDS011;3803;51.666;7.630;2023-03-01T00:12:01;10.48;;;7.80;;
7523;SDS011;3803;51.666;7.630;2023-03-01T00:12:22;9.68;;;7.60;;
7523;SDS011;3803;51.666;7.630;2023-03-01T00:12:42;11.82;;;7.97;;
7523;SDS011;3803;51.666;7.630;2023-03-01T00:13:03;11.53;;;8.00;;
7523;SDS011;3803;51.666;7.630;2023-03-01T00:13:25;11.88;;;8.30;;
7523;SDS011;3803;51.666;7.630;2023-03-01T00:13:46;10.60;;;8.33;;
7523;SDS011;3803;51.666;7.630;2023-03-01T00:14:08;10.98;;;8.40;;
7523;SDS011;3803;51.666;7.630;2023-03-01T00:14:29;11.40;;;8.50;;
7523;SDS011;3803;51.666;7.630;2023-03-01T00:14:50;11.20;;;8.38;;
7523;SDS011;3803;51.666;7.630;2023-03-01T00:15:10;11.27;;;8.23;;
7523;SDS011;3803;51.666;7.630;2023-03-01T00:15:31;10.57;;;8.00;;
7523;SDS011;3803;51.666;7.630;2023-03-01T00:15:52;12.10;;;8.20;;
7523;SDS011;3803;51.666;7.630;2023-03-01T00:16:14;13.30;;;8.67;;
7523;SDS011;3803;51.666;7.630;2023-03-01T00:16:38;12.70;;;8.52;;
7523;SDS011;3803;51.666;7.630;2023-03-01T00:17:01;12.57;;;8.32;;
7523;SDS011;3803;51.666;7.630;2023-03-01T00:17:22;11.95;;;7.93;;
7523;SDS011;3803;51.666;7.630;2023-03-01T00:17:42;12.77;;;8.03;;
7523;SDS011;3803;51.666;7.630;2023-03-01T00:18:03;12.60;;;8.43;;
7523;SDS011;3803;51.666;7.630;2023-03-01T00:18:23;12.27;;;8.17;;
7523;SDS011;3803;51.666;7.630;2023-03-01T00:18:44;11.48;;;8.00;;
7523;SDS011;3803;51.666;7.630;2023-03-01T00:19:05;10.23;;;7.60;;
7523;SDS011;3803;51.666;7.630;2023-03-01T00:19:27;11.82;;;8.02;;
7523;SDS011;3803;51.666;7.630;2023-03-01T00:19:48;11.87;;;8.37;;
7523;SDS011;3803;51.666;7.630;2023-03-01T00:20:08;12.73;;;8.40;;
7523;SDS011;3803;51.666;7.630;2023-03-01T00:20:30;12.50;;;8.40;;
7523;SDS011;3803;51.666;7.630;2023-03-01T00:20:54;12.43;;;8.37;;
7523;SDS011;3803;51.666;7.630;2023-03-01T00:21:15;11.18;;;8.20;;
7523;SDS011;3803;51.666;7.630;2023-03-01T00:21:36;11.80;;;8.38;;
7523;SDS011;3803;51.666;7.630;2023-03-01T00:21:56;12.43;;;8.48;;
7523;SDS011;3803;51.666;7.630;2023-03-01T00:22:17;12.30;;;8.50;;
7523;SDS011;3803;51.666;7.630;2023-03-01T00:22:37;11.45;;;8.20;;
7523;SDS011;3803;51.666;7.630;2023-03-01T00:22:58;10.35;;;8.10;;
7523;SDS011;3803;51.666;7.630;2023-03-01T00:23:19;9.98;;;8.18;;
7523;SDS011;3803;51.666;7.630;2023-03-01T00:23:41;10.13;;;8.35;;
7523;SDS011;3803;51.666;7.630;2023-03-01T00:24:02;9.82;;;8.10;;
7523;SDS011;3803;51.666;7.630;2023-03-01T00:24:23;10.13;;;8.30;;
7523;SDS011;3803;51.666;7.630;2023-03-01T00:24:44;13.05;;;8.52;;
7523;SDS011;3803;51.666;7.630;2023-03-01T00:25:04;14.15;;;8.93;;
7523;SDS011;3803;51.666;7.630;2023-03-01T00:25:25;13.03;;;8.50;;
7523;SDS011;3803;51.666;7.630;2023-03-01T00:25:45;10.07;;;7.90;;
7523;SDS011;3803;51.666;7.630;2023-03-01T00:26:08;10.23;;;7.65;;
7523;SDS011;3803;51.666;7.630;2023-03-01T00:26:31;13.18;;;8.32;;
7523;SDS011;3803;51.666;7.630;2023-03-01T00:26:53;13.15;;;8.60;;
7523;SDS011;3803;51.666;7.630;2023-03-01T00:27:15;12.32;;;8.30;;
7523;SDS011;3803;51.666;7.630;2023-03-01T00:27:36;9.63;;;7.90;;
7523;SDS011;3803;51.666;7.630;2023-03-01T00:27:56;12.50;;;7.85;;
7523;SDS011;3803;51.666;7.630;2023-03-01T00:28:17;12.90;;;7.90;;
7523;SDS011;3803;51.666;7.630;2023-03-01T00:28:39;13.93;;;7.82;;
7523;SDS011;3803;51.666;7.630;2023-03-01T00:29:01;10.82;;;7.65;;
7523;SDS011;3803;51.666;7.630;2023-03-01T00:29:25;11.32;;;7.50;;
7523;SDS011;3803;51.666;7.630;2023-03-01T00:29:45;10.25;;;7.50;;
7523;SDS011;3803;51.666;7.630;2023-03-01T00:30:06;10.57;;;7.90;;
7523;SDS011;3803;51.666;7.630;2023-03-01T00:30:27;10.20;;;7.90;;
7523;SDS011;3803;51.666;7.630;2023-03-01T00:30:48;12.70;;;8.30;;
7523;SDS011;3803;51.666;7.630;2023-03-01T00:31:10;12.68;;;8.38;;
7523;SDS011;3803;51.666;7.630;2023-03-01T00:31:33;12.80;;;7.88;;
7523;SDS011;3803;51.666;7.630;2023-03-01T00:31:53;11.30;;;7.65;;
7523;SDS011;3803;51.666;7.630;2023-03-01T00:32:14;10.93;;;7.90;;
7523;SDS011;3803;51.666;7.630;2023-03-01T00:32:34;11.70;;;8.73;;
7523;SDS011;3803;51.666;7.630;2023-03-01T00:32:55;11.77;;;8.85;;
7523;SDS011;3803;51.666;7.630;2023-03-01T00:33:17;12.00;;;8.65;;
7523;SDS011;3803;51.666;7.630;2023-03-01T00:33:39;12.18;;;8.20;;
7523;SDS011;3803;51.666;7.630;2023-03-01T00:34:01;11.15;;;7.95;;
7523;SDS011;3803;51.666;7.630;2023-03-01T00:34:23;10.73;;;7.88;;
7523;SDS011;3803;51.666;7.630;2023-03-01T00:34:44;9.00;;;7.47;;
7523;SDS011;3803;51.666;7.630;2023-03-01T00:35:14;10.02;;;8.00;;
7523;SDS011;3803;51.666;7.630;2023-03-01T00:35:35;10.55;;;8.10;;
7523;SDS011;3803;51.666;7.630;2023-03-01T00:35:57;11.00;;;7.90;;
7523;SDS011;3803;51.666;7.630;2023-03-01T00:36:18;11.40;;;8.10;;
7523;SDS011;3803;51.666;7.630;2023-03-01T00:36:39;11.00;;;8.38;;
7523;SDS011;3803;51.666;7.630;2023-03-01T00:37:00;11.60;;;8.43;;
7523;SDS011;3803;51.666;7.630;2023-03-01T00:37:25;11.32;;;7.63;;
7523;SDS011;3803;51.666;7.630;2023-03-01T00:37:45;11.18;;;7.60;;
7523;SDS011;3803;51.666;7.630;2023-03-01T00:38:06;11.05;;;8.02;;
7523;SDS011;3803;51.666;7.630;2023-03-01T00:38:27;11.50;;;8.80;;
7523;SDS011;3803;51.666;7.630;2023-03-01T00:38:48;11.97;;;9.00;;
7523;SDS011;3803;51.666;7.630;2023-03-01T00:39:12;11.77;;;8.85;;
7523;SDS011;3803;51.666;7.630;2023-03-01T00:39:34;11.40;;;8.40;;
7523;SDS011;3803;51.666;7.630;2023-03-01T00:39:54;10.67;;;8.30;;
7523;SDS011;3803;51.666;7.630;2023-03-01T00:40:15;10.33;;;8.23;;
7523;SDS011;3803;51.666;7.630;2023-03-01T00:40:36;9.40;;;8.10;;
7523;SDS011;3803;51.666;7.630;2023-03-01T00:41:02;9.88;;;8.00;;
7523;SDS011;3803;51.666;7.630;2023-03-01T00:41:27;11.80;;;8.10;;
7523;SDS011;3803;51.666;7.630;2023-03-01T00:41:48;12.43;;;8.10;;
7523;SDS011;3803;51.666;7.630;2023-03-01T00:42:09;11.55;;;7.75;;
7523;SDS011;3803;51.666;7.630;2023-03-01T00:42:29;10.48;;;7.50;;
7523;SDS011;3803;51.666;7.630;2023-03-01T00:42:50;9.23;;;7.35;;
7523;SDS011;3803;51.666;7.630;2023-03-01T00:43:11;11.38;;;7.90;;
7523;SDS011;3803;51.666;7.630;2023-03-01T00:43:31;12.23;;;8.10;;
7523;SDS011;3803;51.666;7.630;2023-03-01T00:43:56;13.48;;;7.95;;
7523;SDS011;3803;51.666;7.630;2023-03-01T00:44:17;12.63;;;8.10;;
7523;SDS011;3803;51.666;7.630;2023-03-01T00:44:37;12.23;;;8.00;;
7523;SDS011;3803;51.666;7.630;2023-03-01T00:44:58;11.43;;;7.68;;
7523;SDS011;3803;51.666;7.630;2023-03-01T00:45:19;9.83;;;7.30;;
7523;SDS011;3803;51.666;7.630;2023-03-01T00:45:39;10.43;;;7.60;;
7523;SDS011;3803;51.666;7.630;2023-03-01T00:46:00;9.50;;;7.75;;
7523;SDS011;3803;51.666;7.630;2023-03-01T00:46:23;13.02;;;7.93;;
7523;SDS011;3803;51.666;7.630;2023-03-01T00:46:46;13.25;;;7.35;;
7523;SDS011;3803;51.666;7.630;2023-03-01T00:47:06;13.95;;;7.72;;
7523;SDS011;3803;51.666;7.630;2023-03-01T00:47:29;12.47;;;7.90;;
7523;SDS011;3803;51.666;7.630;2023-03-01T00:47:50;10.40;;;7.60;;
7523;SDS011;3803;51.666;7.630;2023-03-01T00:48:11;9.48;;;7.30;;
7523;SDS011;3803;51.666;7.630;2023-03-01T00:48:32;9.60;;;7.30;;
7523;SDS011;3803;51.666;7.630;2023-03-01T00:48:53;9.20;;;7.38;;
7523;SDS011;3803;51.666;7.630;2023-03-01T00:49:15;10.15;;;7.70;;
7523;SDS011;3803;51.666;7.630;2023-03-01T00:49:35;10.00;;;7.73;;
7523;SDS011;3803;51.666;7.630;2023-03-01T00:49:56;9.55;;;7.75;;
7523;SDS011;3803;51.666;7.630;2023-03-01T00:50:17;9.18;;;7.70;;
7523;SDS011;3803;51.666;7.630;2023-03-01T00:50:38;9.48;;;7.72;;
7523;SDS011;3803;51.666;7.630;2023-03-01T00:51:12;10.47;;;8.20;;
7523;SDS011;3803;51.666;7.630;2023-03-01T00:51:40;10.57;;;7.68;;
7523;SDS011;3803;51.666;7.630;2023-03-01T00:52:01;11.25;;;7.50;;
7523;SDS011;3803;51.666;7.630;2023-03-01T00:52:22;10.38;;;7.88;;
7523;SDS011;3803;51.666;7.630;2023-03-01T00:52:42;11.10;;;8.03;;
7523;SDS011;3803;51.666;7.630;2023-03-01T00:53:03;9.65;;;7.80;;
7523;SDS011;3803;51.666;7.630;2023-03-01T00:53:25;9.88;;;7.80;;
7523;SDS011;3803;51.666;7.630;2023-03-01T00:53:45;9.57;;;7.70;;
7523;SDS011;3803;51.666;7.630;2023-03-01T00:54:07;9.63;;;7.63;;
7523;SDS011;3803;51.666;7.630;2023-03-01T00:54:28;9.52;;;7.57;;
7523;SDS011;3803;51.666;7.630;2023-03-01T00:54:51;9.80;;;7.80;;
7523;SDS011;3803;51.666;7.630;2023-03-01T00:55:12;10.43;;;7.93;;
7523;SDS011;3803;51.666;7.630;2023-03-01T00:55:34;11.25;;;8.07;;
7523;SDS011;3803;51.666;7.630;2023-03-01T00:55:56;9.70;;;7.38;;
7523;SDS011;3803;51.666;7.630;2023-03-01T00:56:18;9.77;;;7.60;;
7523;SDS011;3803;51.666;7.630;2023-03-01T00:56:39;8.82;;;7.75;;
7523;SDS011;3803;51.666;7.630;2023-03-01T00:57:00;10.50;;;8.27;;
7523;SDS011;3803;51.666;7.630;2023-03-01T00:57:20;10.35;;;8.15;;
7523;SDS011;3803;51.666;7.630;2023-03-01T00:57:41;10.90;;;8.20;;
7523;SDS011;3803;51.666;7.630;2023-03-01T00:58:02;9.95;;;7.60;;
7523;SDS011;3803;51.666;7.630;2023-03-01T00:58:22;9.87;;;7.60;;
7523;SDS011;3803;51.666;7.630;2023-03-01T00:58:43;9.02;;;7.30;;
7523;SDS011;3803;51.666;7.630;2023-03-01T00:59:04;9.63;;;7.60;;
7523;SDS011;3803;51.666;7.630;2023-03-01T00:59:24;9.20;;;7.43;;
7523;SDS011;3803;51.666;7.630;2023-03-01T00:59:45;9.10;;;7.40;;
7523;SDS011;3803;51.666;7.630;2023-03-01T01:00:06;8.88;;;7.35;;
7523;SDS011;3803;51.666;7.630;2023-03-01T01:00:27;10.70;;;7.88;;
7523;SDS011;3803;51.666;7.630;2023-03-01T01:00:49;11.23;;;8.25;;
7523;SDS011;3803;51.666;7.630;2023-03-01T01:01:11;11.07;;;8.30;;
7523;SDS011;3803;51.666;7.630;2023-03-01T01:01:39;9.52;;;8.05;;
7523;SDS011;3803;51.666;7.630;2023-03-01T01:02:00;10.13;;;7.55;;
7523;SDS011;3803;51.666;7.630;2023-03-01T01:02:21;11.50;;;7.80;;
7523;SDS011;3803;51.666;7.630;2023-03-01T01:02:41;12.77;;;8.00;;
7523;SDS011;3803;51.666;7.630;2023-03-01T01:03:02;11.00;;;7.97;;
7523;SDS011;3803;51.666;7.630;2023-03-01T01:03:23;9.75;;;8.00;;
7523;SDS011;3803;51.666;7.630;2023-03-01T01:03:46;10.38;;;8.27;;
7523;SDS011;3803;51.666;7.630;2023-03-01T01:04:11;10.70;;;8.32;;
7523;SDS011;3803;51.666;7.630;2023-03-01T01:04:32;10.52;;;8.15;;
7523;SDS011;3803;51.666;7.630;2023-03-01T01:04:53;9.68;;;7.80;;
7523;SDS011;3803;51.666;7.630;2023-03-01T01:05:14;10.25;;;7.55;;
7523;SDS011;3803;51.666;7.630;2023-03-01T01:05:34;10.70;;;7.60;;
7523;SDS011;3803;51.666;7.630;2023-03-01T01:05:55;10.88;;;7.97;;
7523;SDS011;3803;51.666;7.630;2023-03-01T01:06:17;11.25;;;8.20;;
7523;SDS011;3803;51.666;7.630;2023-03-01T01:06:43;11.00;;;7.88;;
7523;SDS011;3803;51.666;7.630;2023-03-01T01:07:07;10.98;;;7.60;;
7523;SDS011;3803;51.666;7.630;2023-03-01T01:07:27;13.45;;;8.20;;
7523;SDS011;3803;51.666;7.630;2023-03-01T01:07:48;13.43;;;8.47;;
7523;SDS011;3803;51.666;7.630;2023-03-01T01:08:08;12.13;;;8.00;;
7523;SDS011;3803;51.666;7.630;2023-03-01T01:08:29;9.43;;;7.60;;
7523;SDS011;3803;51.666;7.630;2023-03-01T01:08:50;9.52;;;7.55;;
7523;SDS011;3803;51.666;7.630;2023-03-01T01:09:13;10.45;;;8.13;;
7523;SDS011;3803;51.666;7.630;2023-03-01T01:09:37;11.50;;;8.40;;
7523;SDS011;3803;51.666;7.630;2023-03-01T01:09:58;10.63;;;8.00;;
7523;SDS011;3803;51.666;7.630;2023-03-01T01:10:19;9.60;;;7.60;;
7523;SDS011;3803;51.666;7.630;2023-03-01T01:10:39;9.32;;;7.70;;
7523;SDS011;3803;51.666;7.630;2023-03-01T01:11:00;10.75;;;8.00;;
7523;SDS011;3803;51.666;7.630;2023-03-01T01:11:22;10.90;;;8.20;;
7523;SDS011;3803;51.666;7.630;2023-03-01T01:11:45;11.23;;;8.13;;
7523;SDS011;3803;51.666;7.630;2023-03-01T01:12:07;10.25;;;8.00;;
7523;SDS011;3803;51.666;7.630;2023-03-01T01:12:28;11.07;;;7.90;;
7523;SDS011;3803;51.666;7.630;2023-03-01T01:12:49;12.23;;;8.40;;
7523;SDS011;3803;51.666;7.630;2023-03-01T01:13:09;12.32;;;8.55;;
7523;SDS011;3803;51.666;7.630;2023-03-01T01:13:30;11.87;;;8.60;;
7523;SDS011;3803;51.666;7.630;2023-03-01T01:13:51;11.27;;;8.17;;
7523;SDS011;3803;51.666;7.630;2023-03-01T01:14:12;10.90;;;7.80;;
7523;SDS011;3803;51.666;7.630;2023-03-01T01:14:33;12.07;;;7.95;;
7523;SDS011;3803;51.666;7.630;2023-03-01T01:14:53;11.52;;;8.07;;
7523;SDS011;3803;51.666;7.630;2023-03-01T01:15:14;14.10;;;8.40;;
7523;SDS011;3803;51.666;7.630;2023-03-01T01:15:36;14.07;;;8.43;;
7523;SDS011;3803;51.666;7.630;2023-03-01T01:16:00;14.13;;;8.40;;
7523;SDS011;3803;51.666;7.630;2023-03-01T01:16:22;15.75;;;8.32;;
7523;SDS011;3803;51.666;7.630;2023-03-01T01:16:44;15.15;;;8.30;;
7523;SDS011;3803;51.666;7.630;2023-03-01T01:17:05;14.10;;;8.55;;
7523;SDS011;3803;51.666;7.630;2023-03-01T01:17:25;10.87;;;8.37;;
7523;SDS011;3803;51.666;7.630;2023-03-01T01:17:46;12.10;;;8.50;;
7523;SDS011;3803;51.666;7.630;2023-03-01T01:18:07;11.68;;;8.10;;
7523;SDS011;3803;51.666;7.630;2023-03-01T01:18:27;14.73;;;8.40;;
7523;SDS011;3803;51.666;7.630;2023-03-01T01:18:48;14.83;;;8.50;;
7523;SDS011;3803;51.666;7.630;2023-03-01T01:19:10;15.10;;;8.68;;
7523;SDS011;3803;51.666;7.630;2023-03-01T01:19:31;11.43;;;8.40;;
7523;SDS011;3803;51.666;7.630;2023-03-01T01:19:52;9.50;;;7.90;;
7523;SDS011;3803;51.666;7.630;2023-03-01T01:20:12;9.80;;;8.10;;
7523;SDS011;3803;51.666;7.630;2023-03-01T01:20:35;9.75;;;7.65;;
7523;SDS011;3803;51.666;7.630;2023-03-01T01:20:55;10.68;;;7.90;;
7523;SDS011;3803;51.666;7.630;2023-03-01T01:21:17;11.33;;;7.80;;
7523;SDS011;3803;51.666;7.630;2023-03-01T01:21:38;12.70;;;8.00;;
7523;SDS011;3803;51.666;7.630;2023-03-01T01:21:59;13.87;;;8.17;;
7523;SDS011;3803;51.666;7.630;2023-03-01T01:22:20;12.30;;;8.40;;
7523;SDS011;3803;51.666;7.630;2023-03-01T01:22:40;14.55;;;8.77;;
7523;SDS011;3803;51.666;7.630;2023-03-01T01:23:01;13.87;;;9.00;;
7523;SDS011;3803;51.666;7.630;2023-03-01T01:23:22;13.70;;;8.87;;
7523;SDS011;3803;51.666;7.630;2023-03-01T01:23:43;11.02;;;8.10;;
7523;SDS011;3803;51.666;7.630;2023-03-01T01:24:05;11.05;;;7.95;;
7523;SDS011;3803;51.666;7.630;2023-03-01T01:24:26;11.35;;;8.18;;
7523;SDS011;3803;51.666;7.630;2023-03-01T01:24:47;11.32;;;8.10;;
7523;SDS011;3803;51.666;7.630;2023-03-01T01:25:08;10.70;;;8.00;;
7523;SDS011;3803;51.666;7.630;2023-03-01T01:25:28;11.45;;;8.10;;
7523;SDS011;3803;51.666;7.630;2023-03-01T01:25:49;11.43;;;8.43;;
7523;SDS011;3803;51.666;7.630;2023-03-01T01:26:14;12.20;;;8.37;;
7523;SDS011;3803;51.666;7.630;2023-03-01T01:26:40;12.93;;;8.30;;
7523;SDS011;3803;51.666;7.630;2023-03-01T01:27:01;12.85;;;8.30;;
7523;SDS011;3803;51.666;7.630;2023-03-01T01:27:21;9.90;;;8.03;;
7523;SDS011;3803;51.666;7.630;2023-03-01T01:27:42;10.18;;;8.20;;
7523;SDS011;3803;51.666;7.630;2023-03-01T01:28:03;10.30;;;8.23;;
7523;SDS011;3803;51.666;7.630;2023-03-01T01:28:23;10.93;;;8.23;;
7523;SDS011;3803;51.666;7.630;2023-03-01T01:28:44;10.53;;;8.30;;
7523;SDS011;3803;51.666;7.630;2023-03-01T01:29:05;10.35;;;8.15;;
7523;SDS011;3803;51.666;7.630;2023-03-01T01:29:26;10.50;;;7.90;;
7523;SDS011;3803;51.666;7.630;2023-03-01T01:29:46;10.90;;;8.00;;
7523;SDS011;3803;51.666;7.630;2023-03-01T01:30:07;12.02;;;8.35;;
7523;SDS011;3803;51.666;7.630;2023-03-01T01:30:28;12.82;;;8.57;;
7523;SDS011;3803;51.666;7.630;2023-03-01T01:30:48;13.70;;;8.52;;
7523;SDS011;3803;51.666;7.630;2023-03-01T01:31:09;12.97;;;8.20;;
7523;SDS011;3803;51.666;7.630;2023-03-01T01:31:30;12.50;;;8.40;;
7523;SDS011;3803;51.666;7.630;2023-03-01T01:31:51;11.57;;;8.60;;
7523;SDS011;3803;51.666;7.630;2023-03-01T01:32:12;13.13;;;8.53;;
7523;SDS011;3803;51.666;7.630;2023-03-01T01:32:32;13.30;;;8.65;;
7523;SDS011;3803;51.666;7.630;2023-03-01T01:32:53;14.38;;;8.43;;
7523;SDS011;3803;51.666;7.630;2023-03-01T01:33:13;15.30;;;8.73;;
7523;SDS011;3803;51.666;7.630;2023-03-01T01:33:46;15.25;;;8.73;;
7523;SDS011;3803;51.666;7.630;2023-03-01T01:34:08;13.25;;;8.63;;
7523;SDS011;3803;51.666;7.630;2023-03-01T01:34:38;13.77;;;8.30;;
7523;SDS011;3803;51.666;7.630;2023-03-01T01:34:58;13.20;;;8.65;;
7523;SDS011;3803;51.666;7.630;2023-03-01T01:35:19;11.40;;;8.00;;
7523;SDS011;3803;51.666;7.630;2023-03-01T01:35:40;11.50;;;7.93;;
7523;SDS011;3803;51.666;7.630;2023-03-01T01:36:00;11.98;;;8.13;;
7523;SDS011;3803;51.666;7.630;2023-03-01T01:36:22;11.52;;;8.30;;
7523;SDS011;3803;51.666;7.630;2023-03-01T01:36:43;11.35;;;8.20;;
7523;SDS011;3803;51.666;7.630;2023-03-01T01:37:03;9.70;;;7.20;;
7523;SDS011;3803;51.666;7.630;2023-03-01T01:37:27;10.90;;;7.70;;
7523;SDS011;3803;51.666;7.630;2023-03-01T01:37:51;11.40;;;8.00;;
7523;SDS011;3803;51.666;7.630;2023-03-01T01:38:12;11.50;;;8.20;;
7523;SDS011;3803;51.666;7.630;2023-03-01T01:38:33;11.60;;;8.10;;
7523;SDS011;3803;51.666;7.630;2023-03-01T01:38:54;12.77;;;8.20;;
7523;SDS011;3803;51.666;7.630;2023-03-01T01:39:15;12.80;;;7.88;;
7523;SDS011;3803;51.666;7.630;2023-03-01T01:39:36;11.93;;;7.65;;
7523;SDS011;3803;51.666;7.630;2023-03-01T01:39:57;11.37;;;7.87;;
7523;SDS011;3803;51.666;7.630;2023-03-01T01:40:19;11.07;;;8.05;;
7523;SDS011;3803;51.666;7.630;2023-03-01T01:40:46;12.73;;;8.30;;
7523;SDS011;3803;51.666;7.630;2023-03-01T01:41:07;13.00;;;8.38;;
7523;SDS011;3803;51.666;7.630;2023-03-01T01:41:28;12.13;;;8.43;;
7523;SDS011;3803;51.666;7.630;2023-03-01T01:41:49;11.52;;;8.20;;
7523;SDS011;3803;51.666;7.630;2023-03-01T01:42:16;11.60;;;8.07;;
7523;SDS011;3803;51.666;7.630;2023-03-01T01:42:38;11.98;;;8.35;;
7523;SDS011;3803;51.666;7.630;2023-03-01T01:42:59;11.18;;;8.20;;
7523;SDS011;3803;51.666;7.630;2023-03-01T01:43:43;11.13;;;7.40;;
7523;SDS011;3803;51.666;7.630;2023-03-01T01:44:25;11.05;;;7.72;;
7523;SDS011;3803;51.666;7.630;2023-03-01T01:44:47;11.30;;;8.52;;
7523;SDS011;3803;51.666;7.630;2023-03-01T01:45:59;10.48;;;7.90;;
7523;SDS011;3803;51.666;7.630;2023-03-01T01:46:30;10.80;;;7.88;;
7523;SDS011;3803;51.666;7.630;2023-03-01T01:47:24;10.13;;;7.97;;
7523;SDS011;3803;51.666;7.630;2023-03-01T01:47:53;10.00;;;7.97;;
7523;SDS011;3803;51.666;7.630;2023-03-01T01:48:19;9.95;;;7.78;;
7523;SDS011;3803;51.666;7.630;2023-03-01T01:48:46;10.18;;;7.45;;
7523;SDS011;3803;51.666;7.630;2023-03-01T01:49:37;11.85;;;8.10;;
7523;SDS011;3803;51.666;7.630;2023-03-01T01:50:01;10.65;;;8.15;;
7523;SDS011;3803;51.666;7.630;2023-03-01T01:50:22;11.10;;;8.40;;
7523;SDS011;3803;51.666;7.630;2023-03-01T01:50:43;11.80;;;8.38;;
7523;SDS011;3803;51.666;7.630;2023-03-01T01:51:05;10.98;;;7.78;;
7523;SDS011;3803;51.666;7.630;2023-03-01T01:51:28;11.38;;;7.63;;
7523;SDS011;3803;51.666;7.630;2023-03-01T01:52:27;11.68;;;8.05;;
7523;SDS011;3803;51.666;7.630;2023-03-01T01:52:54;10.55;;;7.50;;
7523;SDS011;3803;51.666;7.630;2023-03-01T01:53:16;11.27;;;7.50;;
7523;SDS011;3803;51.666;7.630;2023-03-01T01:53:39;10.20;;;7.34;;
7523;SDS011;3803;51.666;7.630;2023-03-01T01:54:01;9.98;;;7.30;;
7523;SDS011;3803;51.666;7.630;2023-03-01T01:54:26;9.77;;;7.93;;
7523;SDS011;3803;51.666;7.630;2023-03-01T01:55:18;11.50;;;7.55;;
7523;SDS011;3803;51.666;7.630;2023-03-01T01:55:45;11.93;;;8.27;;
7523;SDS011;3803;51.666;7.630;2023-03-01T01:56:09;12.13;;;8.50;;
7523;SDS011;3803;51.666;7.630;2023-03-01T01:56:33;11.60;;;8.15;;
7523;SDS011;3803;51.666;7.630;2023-03-01T01:56:58;10.30;;;7.78;;
7523;SDS011;3803;51.666;7.630;2023-03-01T01:57:27;11.93;;;7.65;;
7523;SDS011;3803;51.666;7.630;2023-03-01T01:57:57;12.20;;;7.70;;
7523;SDS011;3803;51.666;7.630;2023-03-01T01:58:21;10.82;;;7.60;;
7523;SDS011;3803;51.666;7.630;2023-03-01T01:58:42;10.07;;;7.60;;
7523;SDS011;3803;51.666;7.630;2023-03-01T01:59:04;9.68;;;7.75;;
7523;SDS011;3803;51.666;7.630;2023-03-01T01:59:26;10.98;;;8.00;;
7523;SDS011;3803;51.666;7.630;2023-03-01T01:59:52;11.23;;;7.70;;
7523;SDS011;3803;51.666;7.630;2023-03-01T02:00:16;10.38;;;7.55;;
7523;SDS011;3803;51.666;7.630;2023-03-01T02:00:39;9.88;;;7.85;;
7523;SDS011;3803;51.666;7.630;2023-03-01T02:01:00;11.35;;;8.30;;
7523;SDS011;3803;51.666;7.630;2023-03-01T02:01:21;11.57;;;8.10;;
7523;SDS011;3803;51.666;7.630;2023-03-01T02:01:42;12.65;;;8.25;;
7523;SDS011;3803;51.666;7.630;2023-03-01T02:02:04;13.93;;;8.00;;
7523;SDS011;3803;51.666;7.630;2023-03-01T02:02:26;13.50;;;8.30;;
7523;SDS011;3803;51.666;7.630;2023-03-01T02:02:47;13.77;;;8.10;;
7523;SDS011;3803;51.666;7.630;2023-03-01T02:03:17;12.85;;;8.45;;
7523;SDS011;3803;51.666;7.630;2023-03-01T02:03:43;11.48;;;8.05;;
7523;SDS011;3803;51.666;7.630;2023-03-01T02:04:06;10.23;;;7.68;;
7523;SDS011;3803;51.666;7.630;2023-03-01T02:04:27;9.18;;;7.30;;
7523;SDS011;3803;51.666;7.630;2023-03-01T02:04:49;9.93;;;7.70;;
7523;SDS011;3803;51.666;7.630;2023-03-01T02:06:17;11.70;;;7.75;;
7523;SDS011;3803;51.666;7.630;2023-03-01T02:06:46;12.57;;;8.30;;
7523;SDS011;3803;51.666;7.630;2023-03-01T02:07:19;9.93;;;7.75;;
7523;SDS011;3803;51.666;7.630;2023-03-01T02:07:42;10.00;;;7.82;;
7523;SDS011;3803;51.666;7.630;2023-03-01T02:08:03;9.93;;;7.97;;
7523;SDS011;3803;51.666;7.630;2023-03-01T02:08:25;10.60;;;8.20;;
7523;SDS011;3803;51.666;7.630;2023-03-01T02:08:50;9.90;;;7.70;;
7523;SDS011;3803;51.666;7.630;2023-03-01T02:09:13;10.25;;;7.97;;
7523;SDS011;3803;51.666;7.630;2023-03-01T02:09:36;10.90;;;8.10;;
7523;SDS011;3803;51.666;7.630;2023-03-01T02:09:56;10.65;;;8.20;;
7523;SDS011;3803;51.666;7.630;2023-03-01T02:10:18;10.43;;;8.05;;
7523;SDS011;3803;51.666;7.630;2023-03-01T02:10:41;9.05;;;7.65;;
7523;SDS011;3803;51.666;7.630;2023-03-01T02:11:03;9.30;;;7.50;;
7523;SDS011;3803;51.666;7.630;2023-03-01T02:11:24;9.40;;;7.70;;
7523;SDS011;3803;51.666;7.630;2023-03-01T02:11:46;9.25;;;7.60;;
7523;SDS011;3803;51.666;7.630;2023-03-01T02:12:08;9.38;;;7.80;;
7523;SDS011;3803;51.666;7.630;2023-03-01T02:12:29;12.27;;;7.87;;
7523;SDS011;3803;51.666;7.630;2023-03-01T02:12:50;14.57;;;8.02;;
7523;SDS011;3803;51.666;7.630;2023-03-01T02:13:11;14.55;;;7.90;;
7523;SDS011;3803;51.666;7.630;2023-03-01T02:13:33;10.68;;;7.82;;
7523;SDS011;3803;51.666;7.630;2023-03-01T02:13:54;10.40;;;7.90;;
7523;SDS011;3803;51.666;7.630;2023-03-01T02:14:15;10.90;;;8.27;;
7523;SDS011;3803;51.666;7.630;2023-03-01T02:14:37;10.50;;;8.20;;
7523;SDS011;3803;51.666;7.630;2023-03-01T02:14:57;11.07;;;8.10;;
7523;SDS011;3803;51.666;7.630;2023-03-01T02:15:18;11.15;;;7.88;;
7523;SDS011;3803;51.666;7.630;2023-03-01T02:15:39;11.32;;;8.10;;
7523;SDS011;3803;51.666;7.630;2023-03-01T02:16:19;11.05;;;8.13;;
7523;SDS011;3803;51.666;7.630;2023-03-01T02:16:40;11.50;;;7.95;;
7523;SDS011;3803;51.666;7.630;2023-03-01T02:17:02;12.27;;;8.30;;
7523;SDS011;3803;51.666;7.630;2023-03-01T02:17:23;11.50;;;8.18;;
7523;SDS011;3803;51.666;7.630;2023-03-01T02:17:43;10.35;;;7.90;;
7523;SDS011;3803;51.666;7.630;2023-03-01T02:18:05;10.50;;;7.88;;
7523;SDS011;3803;51.666;7.630;2023-03-01T02:18:26;10.20;;;7.75;;
7523;SDS011;3803;51.666;7.630;2023-03-01T02:18:47;10.10;;;7.55;;
7523;SDS011;3803;51.666;7.630;2023-03-01T02:19:12;9.63;;;7.50;;
7523;SDS011;3803;51.666;7.630;2023-03-01T02:22:10;11.36;;;8.40;;
7523;SDS011;3803;51.666;7.630;2023-03-01T02:22:40;10.75;;;7.85;;
7523;SDS011;3803;51.666;7.630;2023-03-01T02:23:05;9.40;;;7.45;;